createdAt,value
2023-02-16T00:07:30.297Z,111.95
2023-02-16T00:10:26.146Z,107.07
2023-02-16T00:13:58.596Z,108.90
2023-02-16T00:17:54.153Z,105.12
2023-02-16T00:21:35.138Z,101.85
2023-02-16T00:29:24.307Z,99.43
2023-02-16T00:32:57.520Z,90.00
2023-02-16T00:36:40.549Z,99.07
2023-02-16T00:40:10.944Z,97.88
2023-02-16T00:43:55.770Z,107.55
2023-02-16T00:47:26.957Z,100.47
2023-02-16T00:50:58.188Z,107.80
2023-02-16T00:54:20.585Z,88.80
2023-02-16T01:02:00.831Z,105.12
2023-02-16T01:05:48.886Z,96.25
2023-02-16T01:17:29.857Z,92.65
2023-02-16T01:25:20.696Z,84.90
2023-02-16T01:29:05.059Z,89.45
2023-02-16T01:32:45.439Z,90.50
2023-02-16T01:36:29.821Z,91.05
2023-02-16T01:39:53.216Z,90.15
2023-02-16T01:43:29.840Z,88.80
2023-02-16T01:48:13.024Z,94.22
2023-02-16T01:52:10.090Z,85.78
2023-02-16T01:56:02.867Z,82.50
2023-02-16T02:00:01.879Z,85.57
2023-02-16T02:03:54.411Z,82.37
2023-02-16T02:07:40.171Z,80.45
2023-02-16T02:11:39.381Z,81.18
2023-02-16T02:14:44.876Z,85.10
2023-02-16T02:18:19.650Z,88.15
2023-02-16T02:22:42.577Z,83.20
2023-02-16T02:31:52.390Z,77.17
2023-02-16T02:40:02.044Z,81.93
2023-02-16T02:47:25.631Z,83.05
2023-02-16T02:51:20.100Z,79.85
2023-02-16T03:23:03.296Z,88.60
2023-02-16T03:27:17.212Z,81.32
2023-02-16T03:30:53.334Z,80.53
2023-02-16T03:34:47.515Z,76.78
2023-02-16T03:38:58.326Z,81.30
2023-02-16T03:51:05.990Z,86.80
2023-02-16T03:58:57.737Z,86.28
2023-02-16T04:17:04.135Z,96.05
2023-02-16T04:43:14.841Z,91.40
2023-02-16T04:47:17.993Z,85.68
2023-02-16T04:50:53.059Z,76.43
2023-02-16T04:54:40.615Z,87.22
2023-02-16T05:02:16.270Z,76.90
2023-02-16T05:05:39.695Z,86.80
2023-02-16T05:09:06.307Z,86.93
2023-02-16T05:13:16.392Z,81.22
2023-02-16T05:16:59.584Z,84.47
2023-02-16T05:20:29.084Z,75.70
2023-02-16T05:23:44.440Z,80.77
2023-02-16T05:27:14.859Z,64.28
2023-02-16T05:30:37.006Z,72.55
2023-02-16T05:33:51.357Z,83.00
2023-02-16T05:37:02.581Z,80.85
2023-02-16T05:40:14.060Z,71.13
2023-02-16T05:43:21.078Z,86.70
2023-02-16T05:46:29.013Z,87.95
2023-02-16T05:49:41.457Z,86.47
2023-02-16T05:53:06.588Z,87.63
2023-02-16T05:56:16.380Z,81.10
2023-02-16T05:59:29.596Z,85.07
2023-02-16T06:02:36.929Z,76.72
2023-02-16T06:05:45.376Z,87.10
2023-02-16T06:08:51.754Z,81.25
2023-02-16T06:11:58.660Z,85.47
2023-02-16T06:15:09.247Z,86.63
2023-02-16T06:18:14.951Z,83.57
2023-02-16T06:21:40.902Z,79.00
2023-02-16T06:24:45.626Z,80.20
2023-02-16T06:28:08.162Z,96.40
2023-02-16T06:31:16.853Z,89.07
2023-02-16T06:34:26.969Z,87.80
2023-02-16T06:37:31.756Z,75.60
2023-02-16T06:40:39.391Z,79.40
2023-02-16T06:43:43.728Z,84.87
2023-02-16T06:46:51.476Z,86.03
2023-02-16T06:50:06.113Z,80.47
2023-02-16T06:53:08.680Z,75.35
2023-02-16T06:56:13.689Z,75.32
2023-02-16T06:59:26.570Z,72.97
2023-02-16T07:02:38.533Z,76.28
2023-02-16T07:05:45.285Z,73.73
2023-02-16T07:08:54.949Z,70.18
2023-02-16T07:12:03.995Z,69.47
2023-02-16T07:15:08.732Z,65.65
2023-02-16T07:18:26.655Z,65.62
2023-02-16T07:21:51.728Z,55.87
2023-02-16T07:25:04.701Z,53.30
2023-02-16T07:28:18.047Z,57.20
2023-02-16T07:31:26.591Z,52.15
2023-02-16T07:34:31.820Z,47.03
2023-02-16T07:37:40.995Z,51.43
2023-02-16T07:41:01.501Z,47.28
2023-02-16T07:44:04.126Z,50.97
2023-02-16T07:47:32.429Z,50.42
2023-02-16T07:50:54.316Z,45.28
2023-02-16T07:54:09.895Z,44.60
2023-02-16T07:57:19.234Z,42.80
2023-02-16T08:00:31.559Z,43.28
2023-02-16T08:03:39.248Z,41.95
2023-02-16T08:06:50.038Z,40.35
2023-02-16T08:09:56.263Z,45.57
2023-02-16T08:13:14.812Z,50.75
2023-02-16T08:16:25.822Z,44.38
2023-02-16T08:19:34.415Z,39.05
2023-02-16T08:22:45.004Z,43.72
2023-02-16T08:25:50.099Z,46.33
2023-02-16T08:32:20.269Z,42.67
2023-02-16T08:35:27.688Z,48.20
2023-02-16T08:38:32.648Z,45.58
2023-02-16T08:41:37.720Z,49.70
2023-02-16T08:44:41.161Z,47.88
2023-02-16T08:47:45.490Z,46.45
2023-02-16T08:51:05.728Z,44.70
2023-02-16T08:54:27.403Z,44.67
2023-02-16T08:57:33.200Z,46.47
2023-02-16T09:00:39.101Z,45.75
2023-02-16T09:03:48.536Z,44.55
2023-02-16T09:06:52.451Z,44.22
2023-02-16T09:09:54.991Z,42.10
2023-02-16T09:13:02.732Z,44.30
2023-02-16T09:16:15.795Z,48.22
2023-02-16T09:19:24.279Z,42.85
2023-02-16T09:22:31.709Z,40.12
2023-02-16T09:25:40.801Z,43.58
2023-02-16T09:28:47.376Z,46.20
2023-02-16T09:31:55.814Z,41.50
2023-02-16T09:35:08.350Z,46.88
2023-02-16T09:38:18.980Z,39.22
2023-02-16T09:41:48.505Z,40.58
2023-02-16T09:45:05.297Z,43.70
2023-02-16T09:48:30.485Z,38.20
2023-02-16T09:51:38.021Z,38.55
2023-02-16T09:55:04.014Z,41.08
2023-02-16T09:58:16.651Z,37.33
2023-02-16T10:01:46.070Z,40.90
2023-02-16T10:05:13.073Z,38.67
2023-02-16T10:08:37.314Z,38.25
2023-02-16T10:12:01.407Z,40.58
2023-02-16T10:15:14.129Z,33.40
2023-02-16T10:18:21.931Z,42.17
2023-02-16T10:21:31.443Z,35.63
2023-02-16T10:24:49.880Z,34.28
2023-02-16T10:28:08.906Z,34.90
2023-02-16T10:31:24.406Z,39.60
2023-02-16T10:34:33.058Z,35.80
2023-02-16T10:37:58.161Z,32.53
2023-02-16T10:41:11.078Z,31.85
2023-02-16T10:44:20.127Z,35.97
2023-02-16T10:47:41.882Z,33.75
2023-02-16T10:50:58.731Z,38.20
2023-02-16T10:54:07.310Z,33.78
2023-02-16T10:57:30.176Z,36.10
2023-02-16T11:01:13.893Z,34.53
2023-02-16T11:04:41.050Z,36.38
2023-02-16T11:08:01.340Z,34.00
2023-02-16T11:11:12.336Z,31.60
2023-02-16T11:14:31.586Z,33.92
2023-02-16T11:18:04.930Z,32.83
2023-02-16T11:21:12.298Z,32.80
2023-02-16T11:24:35.310Z,26.23
2023-02-16T11:27:50.973Z,32.58
2023-02-16T11:31:23.448Z,31.15
2023-02-16T11:34:42.573Z,32.60
2023-02-16T11:37:48.743Z,30.20
2023-02-16T11:40:55.835Z,31.30
2023-02-16T11:44:04.136Z,30.95
2023-02-16T11:47:27.896Z,29.27
2023-02-16T11:50:38.543Z,29.37
2023-02-16T11:53:47.322Z,33.35
2023-02-16T11:57:24.276Z,32.80
2023-02-16T12:00:26.892Z,28.40
2023-02-16T12:04:09.555Z,33.15
2023-02-16T12:07:49.885Z,33.22
2023-02-16T12:10:58.718Z,33.08
2023-02-16T12:14:23.125Z,29.93
2023-02-16T12:17:32.849Z,32.58
2023-02-16T12:20:53.276Z,34.10
2023-02-16T12:24:18.232Z,33.58
2023-02-16T12:27:56.068Z,34.78
2023-02-16T12:31:05.524Z,33.13
2023-02-16T12:34:25.326Z,32.70
2023-02-16T12:37:53.238Z,36.22
2023-02-16T12:41:23.875Z,34.13
2023-02-16T12:45:03.357Z,33.58
2023-02-16T12:48:14.299Z,34.33
2023-02-16T12:51:29.841Z,34.42
2023-02-16T12:54:51.976Z,38.88
2023-02-16T12:58:29.930Z,31.12
2023-02-16T13:01:36.850Z,37.47
2023-02-16T13:05:21.351Z,33.93
2023-02-16T13:08:39.730Z,36.35
2023-02-16T13:12:02.382Z,38.65
2023-02-16T13:15:26.286Z,33.67
2023-02-16T13:18:40.947Z,36.22
2023-02-16T13:21:59.516Z,33.13
2023-02-16T13:25:40.240Z,32.03
2023-02-16T13:28:59.957Z,33.20
2023-02-16T13:32:17.409Z,30.58
2023-02-16T13:35:41.311Z,34.20
2023-02-16T13:39:17.127Z,34.67
2023-02-16T13:42:56.949Z,33.65
2023-02-16T13:46:06.161Z,31.08
2023-02-16T13:49:43.210Z,34.33
2023-02-16T13:53:01.261Z,31.75
2023-02-16T13:56:30.962Z,35.93
2023-02-16T14:00:02.416Z,35.55
2023-02-16T14:04:01.625Z,34.17
2023-02-16T14:07:06.480Z,30.80
2023-02-16T14:10:20.318Z,31.48
2023-02-16T14:13:42.246Z,31.77
2023-02-16T14:16:46.847Z,33.58
2023-02-16T14:20:04.776Z,31.98
2023-02-16T14:23:27.510Z,40.75
2023-02-16T14:26:59.398Z,33.55
2023-02-16T14:30:05.013Z,31.70
2023-02-16T14:33:09.633Z,31.45
2023-02-16T14:36:19.677Z,29.42
2023-02-16T14:39:23.549Z,31.55
2023-02-16T14:42:32.441Z,33.13
2023-02-16T14:45:58.145Z,31.63
2023-02-16T14:49:33.979Z,29.35
2023-02-16T14:53:03.824Z,30.08
2023-02-16T14:56:11.820Z,29.48
2023-02-16T14:59:24.087Z,32.00
2023-02-16T15:02:31.158Z,31.23
2023-02-16T15:05:39.261Z,32.10
2023-02-16T15:08:49.790Z,30.52
2023-02-16T15:12:21.711Z,31.12
2023-02-16T15:16:04.162Z,29.60
2023-02-16T15:19:18.099Z,31.57
2023-02-16T15:22:31.108Z,31.87
2023-02-16T15:25:40.713Z,29.75
2023-02-16T15:28:53.518Z,30.75
2023-02-16T15:31:59.438Z,32.80
2023-02-16T15:35:25.995Z,30.83
2023-02-16T15:38:43.417Z,36.42
2023-02-16T15:41:54.936Z,35.53
2023-02-16T15:45:00.295Z,34.92
2023-02-16T15:48:39.359Z,37.75
2023-02-16T15:51:47.830Z,34.53
2023-02-16T15:55:01.158Z,33.95
2023-02-16T15:58:05.950Z,35.58
2023-02-16T16:01:39.610Z,43.40
2023-02-16T16:04:57.534Z,39.90
2023-02-16T16:08:03.220Z,40.47
2023-02-16T16:11:06.488Z,45.55
2023-02-16T16:14:13.272Z,42.90
2023-02-16T16:17:28.070Z,41.03
2023-02-16T16:20:59.246Z,45.17
2023-02-16T16:24:19.894Z,43.37
2023-02-16T16:27:39.141Z,41.22
2023-02-16T16:30:45.730Z,38.20
2023-02-16T16:34:03.313Z,43.95
2023-02-16T16:37:36.768Z,44.45
2023-02-16T16:40:42.630Z,40.20
2023-02-16T16:43:58.350Z,39.60
2023-02-16T16:47:12.809Z,44.03
2023-02-16T16:50:19.524Z,41.42
2023-02-16T16:53:30.909Z,54.67
2023-02-16T16:56:41.402Z,41.97
2023-02-16T16:59:46.071Z,48.33
2023-02-16T17:02:54.785Z,49.72
2023-02-16T17:06:01.057Z,45.58
2023-02-16T17:09:06.611Z,45.58
2023-02-16T17:12:13.558Z,53.70
2023-02-16T17:16:17.099Z,46.15
2023-02-16T17:19:23.925Z,50.20
2023-02-16T17:22:35.424Z,52.25
2023-02-16T17:25:40.179Z,49.75
2023-02-16T17:28:52.587Z,57.87
2023-02-16T17:31:58.152Z,53.35
2023-02-16T17:35:12.289Z,44.13
2023-02-16T17:38:29.886Z,48.63
2023-02-16T17:41:35.506Z,52.47
2023-02-16T17:44:42.853Z,63.67
2023-02-16T17:51:18.850Z,57.67
2023-02-16T17:54:32.075Z,46.28
2023-02-16T17:57:48.057Z,49.88
2023-02-16T18:00:58.003Z,48.30
2023-02-16T18:04:06.949Z,60.60
2023-02-16T18:07:15.748Z,102.78
2023-02-16T18:10:38.390Z,67.28
2023-02-16T18:14:02.649Z,151.20
2023-02-16T18:17:08.492Z,171.23
2023-02-16T18:20:19.968Z,188.00
2023-02-16T18:23:27.057Z,190.70
2023-02-16T18:26:37.819Z,178.90
2023-02-16T18:29:56.516Z,159.63
2023-02-16T18:33:03.149Z,158.30
2023-02-16T18:36:09.863Z,153.85
2023-02-16T18:39:19.081Z,134.15
2023-02-16T18:42:33.789Z,148.80
2023-02-16T18:45:43.119Z,128.73
2023-02-16T18:48:56.979Z,123.30
2023-02-16T18:52:09.001Z,136.25
2023-02-16T18:55:21.613Z,121.35
2023-02-16T18:58:35.758Z,125.15
2023-02-16T19:01:49.269Z,126.50
2023-02-16T19:04:55.807Z,123.80
2023-02-16T19:08:04.775Z,132.93
2023-02-16T19:11:09.264Z,120.72
2023-02-16T19:14:27.861Z,99.82
2023-02-16T19:17:39.001Z,105.78
2023-02-16T19:20:45.663Z,109.90
2023-02-16T19:23:54.620Z,101.70
2023-02-16T19:27:03.908Z,95.22
2023-02-16T19:30:10.788Z,90.68
2023-02-16T19:33:21.508Z,83.68
2023-02-16T19:36:33.558Z,78.80
2023-02-16T19:39:40.854Z,79.50
2023-02-16T19:42:53.332Z,83.87
2023-02-16T19:45:59.811Z,92.28
2023-02-16T19:49:20.665Z,83.22
2023-02-16T19:52:40.519Z,79.50
2023-02-16T19:55:50.503Z,78.80
2023-02-16T19:58:58.220Z,93.47
2023-02-16T20:02:07.607Z,88.45
2023-02-16T20:05:15.128Z,82.95
2023-02-16T20:08:27.362Z,80.77
2023-02-16T20:11:30.898Z,77.05
2023-02-16T20:14:50.529Z,85.68
2023-02-16T20:18:00.693Z,63.33
2023-02-16T20:21:14.357Z,81.80
2023-02-16T20:24:42.566Z,71.90
2023-02-16T20:27:52.176Z,70.87
2023-02-16T20:31:13.988Z,59.20
2023-02-16T20:34:23.356Z,57.13
2023-02-16T20:37:34.087Z,54.60
2023-02-16T20:40:42.313Z,59.80
2023-02-16T20:43:50.252Z,57.58
2023-02-16T20:47:04.799Z,59.15
2023-02-16T20:50:19.357Z,56.47
2023-02-16T20:53:26.949Z,53.42
2023-02-16T20:56:44.043Z,56.73
2023-02-16T20:59:50.371Z,64.47
2023-02-16T21:03:06.007Z,65.68
2023-02-16T21:06:13.797Z,55.85
2023-02-16T21:09:24.784Z,58.03
2023-02-16T21:12:36.714Z,61.33
2023-02-16T21:15:50.857Z,64.87
2023-02-16T21:19:00.881Z,59.75
2023-02-16T21:22:11.267Z,64.75
2023-02-16T21:25:34.309Z,65.85
2023-02-16T21:28:59.032Z,59.03
2023-02-16T21:32:06.229Z,63.25
2023-02-16T21:35:15.982Z,65.40
2023-02-16T21:38:21.094Z,68.07
2023-02-16T21:41:33.402Z,61.05
2023-02-16T21:44:52.432Z,61.90
2023-02-16T21:48:20.051Z,70.45
2023-02-16T21:51:41.507Z,59.70
2023-02-16T21:55:16.739Z,68.82
2023-02-16T21:58:34.550Z,61.33
2023-02-16T22:02:03.710Z,63.23
2023-02-16T22:05:25.828Z,64.65
2023-02-16T22:08:38.787Z,64.37
2023-02-16T22:12:00.369Z,61.20
2023-02-16T22:15:29.623Z,62.28
2023-02-16T22:18:41.542Z,63.13
2023-02-16T22:21:54.796Z,69.95
2023-02-16T22:25:06.409Z,66.72
2023-02-16T22:28:23.743Z,62.67
2023-02-16T22:31:38.905Z,65.70
2023-02-16T22:34:58.439Z,66.70
2023-02-16T22:38:07.779Z,68.90
2023-02-16T22:41:30.383Z,67.53
2023-02-16T22:44:41.840Z,70.15
2023-02-16T22:47:53.006Z,68.10
2023-02-16T22:51:09.431Z,61.53
2023-02-16T22:54:16.250Z,68.85
2023-02-16T22:57:38.530Z,66.00
2023-02-16T23:00:58.116Z,60.45
2023-02-16T23:04:26.626Z,76.75
2023-02-16T23:07:34.504Z,69.13
2023-02-16T23:11:00.041Z,69.28
2023-02-16T23:14:13.811Z,70.45
2023-02-16T23:17:37.320Z,68.65
2023-02-16T23:20:45.948Z,73.15
2023-02-16T23:24:10.233Z,74.00
2023-02-16T23:27:37.914Z,75.12
2023-02-16T23:30:53.895Z,73.85
2023-02-16T23:34:02.133Z,67.97
2023-02-16T23:37:36.439Z,73.45
2023-02-16T23:40:56.312Z,71.63
2023-02-16T23:44:04.148Z,77.00
2023-02-16T23:47:44.830Z,75.75
2023-02-16T23:50:58.946Z,74.85
2023-02-16T23:54:16.556Z,69.90
2023-02-16T23:57:29.381Z,64.93
